Time;durP1;ratioP1;P1;durP2;ratioP2;P2;SDS_P1;SDS_P2;PMS_P1;PMS_P2;Temp;Humidity;BMP_temperature;BMP_pressure;BME280_temperature;BME280_humidity;BME280_pressure;Samples;Min_cycle;Max_cycle;Signal;HPM_P1;HPM_P2
2024/04/02 00:01:47;;;;;;;1.90;0.70;;;11.50;99.90;;;;;;6308396;22;20006;-76
2024/04/02 00:04:14;;;;;;;2.88;0.70;;;11.50;99.90;;;;;;6307732;22;20000;-78
2024/04/02 00:06:40;;;;;;;3.65;0.82;;;11.60;99.90;;;;;;6308362;22;20072;-71
2024/04/02 00:09:06;;;;;;;1.55;0.70;;;11.70;99.90;;;;;;6308187;22;20046;-76
2024/04/02 00:11:31;;;;;;;4.60;0.70;;;11.70;99.90;;;;;;6306592;22;20014;-69
2024/04/02 00:13:58;;;;;;;1.05;0.60;;;11.70;99.90;;;;;;6307763;22;20042;-68
2024/04/02 00:16:24;;;;;;;1.50;0.50;;;11.70;99.90;;;;;;6280656;22;20007;-71
2024/04/02 00:18:50;;;;;;;3.03;0.80;;;11.70;99.90;;;;;;6307929;22;20004;-72
2024/04/02 00:21:16;;;;;;;2.67;0.70;;;11.60;99.90;;;;;;6308018;22;20070;-68
2024/04/02 00:23:42;;;;;;;1.63;0.52;;;11.60;99.90;;;;;;6307448;22;20397;-69
2024/04/02 00:26:08;;;;;;;3.42;1.40;;;11.50;99.90;;;;;;6307715;22;20002;-69
2024/04/02 00:28:34;;;;;;;1.25;0.45;;;11.40;99.90;;;;;;6307575;22;20003;-68
2024/04/02 00:31:04;;;;;;;1.10;0.47;;;11.40;99.90;;;;;;6308291;22;20007;-69
2024/04/02 00:33:30;;;;;;;2.00;0.55;;;11.40;99.90;;;;;;6308437;22;20022;-69
2024/04/02 00:36:04;;;;;;;2.40;0.60;;;11.40;99.90;;;;;;6308702;22;20013;-69
2024/04/02 00:38:31;;;;;;;1.90;0.52;;;11.40;99.90;;;;;;6308393;22;20396;-67
2024/04/02 00:41:26;;;;;;;2.97;0.80;;;11.30;99.90;;;;;;6308784;22;20027;-68
2024/04/02 02:44:07;;;;;;;2.42;0.85;;;10.90;99.90;;;;;;6302265;22;20109;-67
2024/04/02 02:47:15;;;;;;;4.10;1.08;;;10.80;99.90;;;;;;6306363;22;20015;-72
2024/04/02 02:49:49;;;;;;;7.55;1.02;;;10.80;99.90;;;;;;6224055;22;20388;-71
2024/04/02 02:52:15;;;;;;;2.65;0.70;;;10.80;99.90;;;;;;6307036;22;20382;-70
2024/04/02 02:54:41;;;;;;;3.53;0.88;;;10.80;99.90;;;;;;6306436;22;20018;-69
2024/04/02 02:57:07;;;;;;;2.42;0.65;;;10.80;99.90;;;;;;6307268;22;20325;-70
2024/04/02 02:59:33;;;;;;;3.15;0.80;;;10.70;99.90;;;;;;6306985;22;20006;-75
2024/04/02 03:01:59;;;;;;;1.40;0.40;;;10.70;99.90;;;;;;6306969;22;20057;-68
2024/04/02 03:04:24;;;;;;;3.70;0.50;;;10.70;99.90;;;;;;6306548;22;20022;-72
2024/04/02 03:06:50;;;;;;;3.20;0.70;;;10.70;99.90;;;;;;6306704;22;20004;-76
2024/04/02 03:09:16;;;;;;;3.83;1.05;;;10.70;99.90;;;;;;6306638;22;19999;-68
2024/04/02 03:11:42;;;;;;;0.73;0.60;;;10.60;99.90;;;;;;6308327;22;20003;-70
2024/04/02 03:14:07;;;;;;;3.45;0.80;;;10.60;99.90;;;;;;6308462;22;20015;-76
2024/04/02 03:16:33;;;;;;;1.17;0.45;;;10.60;99.90;;;;;;6308430;22;20007;-75
2024/04/02 03:18:59;;;;;;;2.45;0.57;;;10.60;99.90;;;;;;6308429;22;20074;-72
2024/04/02 03:21:25;;;;;;;2.30;0.80;;;10.50;99.90;;;;;;6308421;22;19999;-68
2024/04/02 03:23:50;;;;;;;3.47;1.25;;;10.50;99.90;;;;;;6308370;22;19999;-73
2024/04/02 03:26:16;;;;;;;4.70;1.02;;;10.50;99.90;;;;;;6307950;22;20007;-66
2024/04/02 03:28:42;;;;;;;3.42;0.90;;;10.40;99.90;;;;;;6308343;22;19995;-71
2024/04/02 03:31:08;;;;;;;2.05;1.00;;;10.40;99.90;;;;;;6308635;22;20018;-76
2024/04/02 03:33:34;;;;;;;1.42;0.90;;;10.40;99.90;;;;;;6280703;22;20111;-76
2024/04/02 03:36:02;;;;;;;5.28;0.88;;;10.40;99.90;;;;;;6308518;22;20012;-72
2024/04/02 03:38:28;;;;;;;4.40;1.17;;;10.40;99.90;;;;;;6308335;22;20003;-72
2024/04/02 03:40:54;;;;;;;3.05;0.93;;;10.40;99.90;;;;;;6307965;22;20000;-69
2024/04/02 03:43:19;;;;;;;1.95;0.95;;;10.30;99.90;;;;;;6307767;22;20018;-70
2024/04/02 03:45:46;;;;;;;3.63;1.30;;;10.30;99.90;;;;;;6308097;22;20072;-68
2024/04/02 03:48:12;;;;;;;2.78;1.10;;;10.30;99.90;;;;;;6281005;22;20318;-75
2024/04/02 03:50:39;;;;;;;2.85;1.08;;;10.30;99.90;;;;;;6308249;22;20007;-70
2024/04/02 03:53:05;;;;;;;2.33;1.10;;;10.30;99.90;;;;;;6308219;22;20425;-70
2024/04/02 03:55:37;;;;;;;3.03;1.23;;;10.30;99.90;;;;;;6308125;22;20015;-71
2024/04/02 03:58:04;;;;;;;4.18;1.73;;;10.30;99.90;;;;;;6309013;22;20075;-67
2024/04/02 04:00:31;;;;;;;6.07;1.15;;;10.30;99.90;;;;;;6308825;22;20324;-68
2024/04/02 04:02:57;;;;;;;2.63;1.10;;;10.20;99.90;;;;;;6307202;22;19995;-68
2024/04/02 04:05:27;;;;;;;3.90;1.42;;;10.20;99.90;;;;;;6308782;22;20003;-67
2024/04/02 04:17:52;;;;;;;4.95;2.10;;;10.20;99.90;;;;;;6123491;23;20480;-70
2024/04/02 04:20:34;;;;;;;7.22;1.40;;;10.20;99.90;;;;;;6036689;23;20011;-72
2024/04/02 04:24:03;;;;;;;3.50;1.20;;;10.20;99.90;;;;;;6036496;23;20324;-70
2024/04/02 04:26:50;;;;;;;2.95;1.27;;;10.20;99.90;;;;;;5981438;23;20015;-66
2024/04/02 04:29:56;;;;;;;4.68;1.25;;;10.20;99.90;;;;;;5961453;23;20016;-68
2024/04/02 04:32:45;;;;;;;4.47;1.33;;;10.10;99.90;;;;;;5953085;24;20019;-73
2024/04/02 04:35:11;;;;;;;4.03;1.80;;;10.10;99.90;;;;;;5952793;24;20410;-68
2024/04/02 04:37:37;;;;;;;2.65;2.13;;;10.10;99.90;;;;;;6069844;22;20060;-75
2024/04/02 04:40:03;;;;;;;3.08;1.70;;;10.10;99.90;;;;;;6307597;22;20053;-70
2024/04/02 04:42:32;;;;;;;2.38;1.38;;;10.10;99.90;;;;;;6307864;22;20294;-74
2024/04/02 04:44:58;;;;;;;4.88;1.40;;;10.10;99.90;;;;;;6307332;22;20353;-70
2024/04/02 04:47:23;;;;;;;5.50;1.40;;;10.00;99.90;;;;;;6307455;22;20000;-69
2024/04/02 04:49:49;;;;;;;1.48;1.00;;;10.00;99.90;;;;;;6307714;22;20003;-73
2024/04/02 04:52:16;;;;;;;1.70;1.20;;;10.00;99.90;;;;;;6307828;22;20006;-71
2024/04/02 04:54:42;;;;;;;2.03;1.20;;;10.00;99.90;;;;;;6307460;22;20328;-66
2024/04/02 04:57:08;;;;;;;5.80;1.45;;;10.00;99.90;;;;;;6280573;22;20027;-71
2024/04/02 04:59:34;;;;;;;4.25;1.40;;;10.00;99.90;;;;;;6307642;22;20000;-75
2024/04/02 05:01:59;;;;;;;3.58;1.27;;;9.90;99.90;;;;;;6307495;22;20002;-67
2024/04/02 05:04:25;;;;;;;2.05;1.45;;;9.90;99.90;;;;;;6307825;22;20026;-69
2024/04/02 05:06:52;;;;;;;4.82;1.17;;;9.90;99.90;;;;;;6307473;22;19992;-70
2024/04/02 05:09:19;;;;;;;4.65;3.13;;;9.90;99.90;;;;;;6307307;22;20433;-71
2024/04/02 05:11:45;;;;;;;3.83;2.55;;;9.80;99.90;;;;;;6307107;22;20366;-71
2024/04/02 05:14:11;;;;;;;4.85;2.30;;;9.80;99.90;;;;;;6306862;22;20031;-69
2024/04/02 05:16:37;;;;;;;4.38;1.52;;;9.80;99.90;;;;;;6307011;22;20005;-82
2024/04/02 05:19:04;;;;;;;3.30;1.70;;;9.80;99.90;;;;;;6307338;22;20072;-82
2024/04/02 05:21:29;;;;;;;2.42;1.30;;;9.80;99.90;;;;;;6307225;22;20452;-80
2024/04/02 05:23:55;;;;;;;2.22;0.98;;;9.80;99.90;;;;;;6308455;22;19999;-82
2024/04/02 05:26:21;;;;;;;3.13;1.30;;;9.80;99.90;;;;;;6306997;22;20014;-81
2024/04/02 05:28:47;;;;;;;2.45;1.40;;;9.80;99.90;;;;;;6307318;22;20003;-81
2024/04/02 05:31:15;;;;;;;1.33;0.90;;;9.80;99.90;;;;;;6306660;22;20007;-82
2024/04/02 05:33:41;;;;;;;6.85;1.10;;;9.80;99.90;;;;;;6307004;22;20078;-82
2024/04/02 05:36:07;;;;;;;2.70;0.90;;;9.80;99.90;;;;;;6306646;22;20003;-81
2024/04/02 05:38:33;;;;;;;2.72;1.40;;;9.80;99.90;;;;;;6307967;22;19995;-67
2024/04/02 05:40:59;;;;;;;4.13;2.20;;;9.80;99.90;;;;;;6307634;22;20002;-69
2024/04/02 05:43:26;;;;;;;4.07;1.80;;;9.80;99.90;;;;;;6307729;22;20015;-72
2024/04/02 05:45:53;;;;;;;5.72;1.83;;;9.80;99.90;;;;;;6308070;22;20038;-75
2024/04/02 05:48:19;;;;;;;3.35;1.67;;;9.80;99.90;;;;;;6307681;22;19999;-71
2024/04/02 05:54:23;;;;;;;7.88;3.42;;;9.90;99.90;;;;;;6211698;23;20097;-66
2024/04/02 06:01:14;;;;;;;7.38;3.80;;;9.90;99.90;;;;;;6121349;23;20089;-66
2024/04/02 06:04:09;;;;;;;5.13;4.55;;;10.00;99.90;;;;;;6120395;23;20013;-66
2024/04/02 06:07:04;;;;;;;11.25;4.10;;;10.10;99.90;;;;;;6159955;23;20031;-65
2024/04/02 06:13:40;;;;;;;7.40;4.85;;;10.10;99.90;;;;;;6074259;23;20070;-66
2024/04/02 06:16:12;;;;;;;5.40;4.65;;;10.20;99.90;;;;;;6007877;23;20016;-66
2024/04/02 06:18:38;;;;;;;6.23;4.23;;;10.20;99.90;;;;;;6027194;23;20093;-66
2024/04/02 06:21:04;;;;;;;4.53;4.13;;;10.30;99.90;;;;;;6158273;23;20379;-67
2024/04/02 06:23:29;;;;;;;8.48;5.32;;;10.30;99.90;;;;;;6227241;22;20107;-66
2024/04/02 06:25:55;;;;;;;7.55;2.70;;;10.40;99.90;;;;;;6306950;22;20049;-67
2024/04/02 06:28:21;;;;;;;4.57;3.10;;;10.40;99.90;;;;;;6306886;22;20007;-66
2024/04/02 06:30:47;;;;;;;5.65;3.38;;;10.50;99.90;;;;;;6307214;22;20000;-67
2024/04/02 06:33:13;;;;;;;3.83;1.30;;;10.50;99.90;;;;;;6306569;22;20009;-67
2024/04/02 06:35:38;;;;;;;3.78;1.30;;;10.50;99.90;;;;;;6306304;22;20019;-66
2024/04/02 06:38:05;;;;;;;4.38;1.38;;;10.60;99.90;;;;;;6306645;22;20154;-67
2024/04/02 06:40:32;;;;;;;3.47;1.30;;;10.60;99.90;;;;;;6305808;22;20433;-68
2024/04/02 06:42:58;;;;;;;6.47;1.45;;;10.70;99.90;;;;;;6306276;22;20294;-70
2024/04/02 06:45:23;;;;;;;3.30;0.95;;;10.70;99.90;;;;;;6306736;22;20022;-70
2024/04/02 06:47:52;;;;;;;7.13;1.15;;;10.80;99.90;;;;;;6308886;22;20065;-67
2024/04/02 06:50:18;;;;;;;2.92;0.90;;;10.90;99.90;;;;;;6309298;22;20317;-67
2024/04/02 06:52:44;;;;;;;9.18;1.00;;;10.90;99.90;;;;;;6308541;22;20023;-68
2024/04/02 06:55:10;;;;;;;3.97;1.00;;;11.00;99.90;;;;;;6308597;22;20007;-68
2024/04/02 06:57:36;;;;;;;3.28;0.90;;;11.00;99.90;;;;;;6308595;22;19995;-68
2024/04/02 07:00:01;;;;;;;2.97;1.02;;;11.10;99.90;;;;;;6305497;22;20011;-66
2024/04/02 07:02:27;;;;;;;2.53;0.70;;;11.10;99.90;;;;;;6305735;22;20029;-67
2024/04/02 07:04:53;;;;;;;3.05;0.75;;;11.20;99.90;;;;;;6306298;22;20011;-64
2024/04/02 07:07:19;;;;;;;2.20;0.80;;;11.30;99.90;;;;;;6308592;22;20060;-65
2024/04/02 07:09:44;;;;;;;2.13;0.68;;;11.40;99.90;;;;;;6308659;22;20082;-66
2024/04/02 07:12:11;;;;;;;1.90;0.63;;;11.40;99.90;;;;;;6308879;22;20007;-64
2024/04/02 07:14:37;;;;;;;2.35;0.88;;;11.50;99.90;;;;;;6308754;22;20011;-64
2024/04/02 07:17:03;;;;;;;2.05;0.60;;;11.50;99.90;;;;;;6308862;22;20404;-65
2024/04/02 07:19:29;;;;;;;2.10;0.70;;;11.60;99.90;;;;;;6308824;22;20015;-66
2024/04/02 07:21:54;;;;;;;2.35;0.82;;;11.60;99.90;;;;;;6308626;22;20006;-65
2024/04/02 07:24:20;;;;;;;1.67;0.52;;;11.70;99.90;;;;;;6309115;22;20110;-66
2024/04/02 07:26:46;;;;;;;1.33;0.40;;;11.80;99.90;;;;;;6309233;22;20433;-65
2024/04/02 07:29:12;;;;;;;0.80;0.40;;;11.80;99.90;;;;;;6309725;22;20004;-65
2024/04/02 07:31:38;;;;;;;4.15;0.70;;;11.80;99.90;;;;;;6309359;22;20410;-65
2024/04/02 07:58:57;;;;;;;8.68;1.38;;;12.40;99.90;;;;;;6030283;23;20430;-63
2024/04/02 08:01:23;;;;;;;9.65;1.48;;;12.40;99.90;;;;;;6037554;23;20382;-64
2024/04/02 08:03:49;;;;;;;7.68;1.38;;;12.40;99.90;;;;;;6083099;23;20010;-64
2024/04/02 08:06:15;;;;;;;2.70;0.82;;;12.50;99.90;;;;;;6253942;22;20007;-64
2024/04/02 08:08:41;;;;;;;9.60;1.75;;;12.60;99.90;;;;;;6308422;22;20011;-64
2024/04/02 08:11:08;;;;;;;11.07;1.40;;;12.70;99.90;;;;;;6308197;22;19999;-64
2024/04/02 08:13:34;;;;;;;22.70;2.17;;;12.70;99.90;;;;;;6307521;22;20003;-64
2024/04/02 08:16:00;;;;;;;6.18;1.10;;;12.80;99.90;;;;;;6307900;22;20003;-64
2024/04/02 08:18:25;;;;;;;15.00;1.73;;;12.80;99.90;;;;;;6307818;22;20010;-64
2024/04/02 08:20:51;;;;;;;9.30;1.25;;;12.90;99.90;;;;;;6307904;22;20011;-64
2024/04/02 08:23:17;;;;;;;6.95;1.30;;;13.00;99.90;;;;;;6307425;22;20007;-64
2024/04/02 08:25:43;;;;;;;9.57;1.58;;;13.00;99.90;;;;;;6307055;22;19996;-64
2024/04/02 08:28:09;;;;;;;6.05;1.00;;;13.10;99.90;;;;;;6307628;22;19999;-64
2024/04/02 08:30:34;;;;;;;7.15;1.60;;;13.10;99.90;;;;;;6307958;22;19999;-64
2024/04/02 08:33:00;;;;;;;7.72;1.30;;;13.20;99.90;;;;;;6308298;22;20011;-65
2024/04/02 08:35:26;;;;;;;5.22;1.02;;;13.20;99.90;;;;;;6307815;22;20042;-64
2024/04/02 08:37:51;;;;;;;5.68;1.00;;;13.20;99.90;;;;;;6307699;22;20057;-64
2024/04/02 08:40:17;;;;;;;5.13;1.35;;;13.30;99.90;;;;;;6307688;22;20065;-65
2024/04/02 08:42:48;;;;;;;10.15;1.50;;;13.40;99.90;;;;;;6307754;22;19995;-64
2024/04/02 08:45:17;;;;;;;6.30;1.00;;;13.40;99.90;;;;;;6307726;22;20015;-64
2024/04/02 08:47:43;;;;;;;8.10;1.63;;;13.50;99.90;;;;;;6307676;22;20033;-66
2024/04/02 08:50:12;;;;;;;4.97;1.70;;;13.50;99.90;;;;;;6307831;22;20069;-64
2024/04/02 08:52:37;;;;;;;4.95;0.90;;;13.60;99.90;;;;;;6307860;22;20360;-64
2024/04/02 08:55:04;;;;;;;4.55;0.88;;;13.70;99.90;;;;;;6280493;22;20130;-64
2024/04/02 08:57:30;;;;;;;4.40;0.90;;;13.60;99.90;;;;;;6307031;22;20034;-67
2024/04/02 08:59:57;;;;;;;5.93;0.90;;;13.70;99.90;;;;;;6306633;22;20425;-65
2024/04/02 09:02:24;;;;;;;4.95;1.00;;;13.70;99.90;;;;;;6307634;22;20034;-69
2024/04/02 09:04:50;;;;;;;3.10;0.77;;;13.60;99.90;;;;;;6308113;22;20033;-64
2024/04/02 09:07:16;;;;;;;5.40;0.75;;;13.60;99.90;;;;;;6307716;22;20447;-65
2024/04/02 09:09:43;;;;;;;10.15;0.85;;;13.60;99.90;;;;;;6307247;22;20003;-69
2024/04/02 09:12:09;;;;;;;3.13;0.77;;;13.60;99.90;;;;;;6307799;22;20329;-68
2024/04/02 09:15:32;;;;;;;3.20;0.80;;;13.60;99.90;;;;;;6307461;22;20023;-69
2024/04/02 09:22:51;;;;;;;3.95;0.60;;;13.70;99.90;;;;;;6209205;23;20023;-69
2024/04/02 09:31:58;;;;;;;26.40;13.20;;;13.70;99.90;;;;;;6183155;23;20063;-68
2024/04/02 09:34:34;;;;;;;6.65;1.00;;;13.70;99.90;;;;;;6182629;23;20072;-68
2024/04/02 09:37:36;;;;;;;10.95;1.17;;;13.70;99.90;;;;;;6205844;23;20028;-69
2024/04/02 09:40:03;;;;;;;7.97;1.83;;;13.70;99.90;;;;;;6208689;23;20008;-76
2024/04/02 09:42:33;;;;;;;8.02;1.23;;;13.70;99.90;;;;;;6210856;23;20663;-73
2024/04/02 09:45:00;;;;;;;9.75;1.10;;;13.70;99.90;;;;;;6239939;22;20395;-74
2024/04/02 09:47:27;;;;;;;6.03;1.17;;;13.70;99.90;;;;;;6306547;22;20034;-70
2024/04/02 09:49:53;;;;;;;5.63;0.90;;;13.70;99.90;;;;;;6279666;22;20064;-69
2024/04/02 09:52:25;;;;;;;7.28;1.40;;;13.70;99.90;;;;;;6307586;22;20015;-75
2024/04/02 09:54:52;;;;;;;5.38;1.10;;;13.80;99.90;;;;;;6307130;22;20011;-73
2024/04/02 09:57:21;;;;;;;9.68;2.75;;;13.80;99.90;;;;;;6307313;22;19999;-76
2024/04/02 09:59:47;;;;;;;9.15;1.05;;;13.90;99.90;;;;;;6307180;22;20328;-70
2024/04/02 10:02:22;;;;;;;7.75;1.55;;;14.00;99.90;;;;;;6307042;22;20345;-74
2024/04/02 10:04:47;;;;;;;6.75;1.20;;;14.00;99.90;;;;;;6307035;22;20002;-75
2024/04/02 10:07:32;;;;;;;5.10;1.30;;;14.10;99.90;;;;;;6306980;22;19999;-73
2024/04/02 10:10:00;;;;;;;6.22;1.15;;;14.10;99.90;;;;;;6307499;22;20000;-70
2024/04/02 10:12:33;;;;;;;6.68;1.42;;;14.10;99.90;;;;;;6307124;22;20426;-73
2024/04/02 10:15:09;;;;;;;4.78;1.10;;;14.20;99.90;;;;;;6307079;22;20011;-75
2024/04/02 10:17:35;;;;;;;8.15;1.20;;;14.30;99.90;;;;;;6307152;22;20497;-70
2024/04/02 10:20:01;;;;;;;4.10;1.27;;;14.30;99.90;;;;;;6306706;22;20129;-74
2024/04/02 10:22:36;;;;;;;6.20;1.20;;;14.40;99.90;;;;;;6309697;22;20034;-75
2024/04/02 10:25:12;;;;;;;6.75;1.00;;;14.40;99.90;;;;;;6309355;22;20008;-73
2024/04/02 10:27:44;;;;;;;5.65;1.02;;;14.50;99.90;;;;;;6309201;22;20002;-74
2024/04/02 10:30:27;;;;;;;7.38;1.10;;;14.50;99.90;;;;;;6309210;22;19999;-76
2024/04/02 10:32:56;;;;;;;9.32;1.25;;;14.60;99.90;;;;;;6308932;22;20023;-71
2024/04/02 10:35:24;;;;;;;4.65;1.00;;;14.70;99.90;;;;;;6308632;22;20007;-69
2024/04/02 10:37:55;;;;;;;9.23;1.30;;;14.80;99.90;;;;;;6309057;22;20074;-67
2024/04/02 10:40:21;;;;;;;5.20;1.10;;;14.80;99.90;;;;;;6308167;22;20012;-66
2024/04/02 10:42:48;;;;;;;10.13;1.77;;;14.80;99.90;;;;;;6308772;22;20019;-66
2024/04/02 10:45:15;;;;;;;6.93;1.17;;;14.80;99.90;;;;;;6309275;22;20022;-70
2024/04/02 10:47:48;;;;;;;8.02;1.42;;;14.90;99.90;;;;;;6309509;22;20122;-71
2024/04/02 10:50:15;;;;;;;7.82;1.83;;;14.90;99.90;;;;;;6309413;22;20014;-68
2024/04/02 10:52:42;;;;;;;8.20;1.38;;;14.90;99.90;;;;;;6309465;22;20003;-67
2024/04/02 11:10:07;;;;;;;10.75;1.60;;;15.00;99.90;;;;;;6199991;23;20035;-66
2024/04/02 11:19:41;;;;;;;10.75;1.88;;;15.20;99.90;;;;;;6048490;23;20068;-67
2024/04/02 11:24:58;;;;;;;11.55;2.00;;;15.40;99.90;;;;;;6308433;22;20094;-66
2024/04/02 11:27:27;;;;;;;9.63;1.80;;;15.50;99.90;;;;;;6308286;22;20089;-66
2024/04/02 11:29:54;;;;;;;9.25;1.58;;;15.60;99.90;;;;;;6308554;22;20031;-65
2024/04/02 11:32:20;;;;;;;10.23;1.67;;;15.70;99.90;;;;;;6308111;22;20375;-67
2024/04/02 11:34:58;;;;;;;18.17;3.33;;;15.60;99.90;;;;;;6308342;22;20337;-66
2024/04/02 11:37:24;;;;;;;13.82;1.70;;;15.60;99.90;;;;;;6308253;22;19999;-66
2024/04/02 11:39:50;;;;;;;14.10;3.00;;;15.70;99.90;;;;;;6308419;22;20010;-67
2024/04/02 11:42:16;;;;;;;13.32;1.98;;;15.70;99.90;;;;;;6308599;22;19999;-67
2024/04/02 11:44:42;;;;;;;6.25;1.67;;;15.80;99.90;;;;;;6308231;22;20046;-66
2024/04/02 11:47:08;;;;;;;9.13;1.55;;;15.80;99.90;;;;;;6308268;22;19995;-66
2024/04/02 11:49:33;;;;;;;7.40;1.58;;;15.90;99.90;;;;;;6308516;22;20045;-66
2024/04/02 11:52:00;;;;;;;7.63;1.70;;;16.00;99.90;;;;;;6308156;22;20066;-65
2024/04/02 11:54:26;;;;;;;14.05;2.35;;;16.00;99.70;;;;;;6307761;22;20007;-65
2024/04/02 12:02:22;;;;;;;7.93;1.40;;;16.10;98.80;;;;;;6307924;22;20082;-65
2024/04/02 12:04:48;;;;;;;8.05;1.38;;;16.20;97.90;;;;;;6308118;22;20078;-66
2024/04/02 12:07:14;;;;;;;10.05;1.45;;;16.20;98.60;;;;;;6308339;22;20053;-66
2024/04/02 12:09:40;;;;;;;6.57;1.20;;;16.40;98.80;;;;;;6307445;22;20007;-66
2024/04/02 12:12:07;;;;;;;5.70;1.02;;;16.40;98.40;;;;;;6307784;22;20006;-66
2024/04/02 12:14:33;;;;;;;11.25;2.42;;;16.50;97.10;;;;;;6307744;22;20441;-68
2024/04/02 12:16:59;;;;;;;8.57;1.33;;;16.60;96.30;;;;;;6307634;22;20023;-67
2024/04/02 12:19:25;;;;;;;8.80;1.73;;;16.60;95.60;;;;;;6305548;22;20018;-64
2024/04/02 12:21:51;;;;;;;10.15;2.03;;;16.70;96.00;;;;;;6308268;22;20091;-72
2024/04/02 12:24:20;;;;;;;7.50;1.30;;;16.70;96.00;;;;;;6307753;22;20474;-77
2024/04/02 12:26:45;;;;;;;7.05;1.45;;;16.70;95.90;;;;;;6308113;22;19999;-67
2024/04/02 12:29:11;;;;;;;10.52;1.33;;;16.80;95.00;;;;;;6308707;22;20011;-68
2024/04/02 12:31:38;;;;;;;8.25;1.95;;;16.80;93.80;;;;;;6308191;22;20009;-66
2024/04/02 12:34:51;;;;;;;7.43;1.40;;;16.70;94.60;;;;;;6306804;22;20342;-71
2024/04/02 12:37:18;;;;;;;7.43;1.40;;;16.70;94.10;;;;;;6304708;22;20448;-68
2024/04/02 12:39:46;;;;;;;9.02;1.95;;;16.60;94.50;;;;;;6308399;22;20038;-68
2024/04/02 12:42:19;;;;;;;7.00;1.73;;;16.70;95.10;;;;;;6308020;22;20330;-72
2024/04/02 12:44:48;;;;;;;8.70;1.70;;;16.70;95.40;;;;;;6307069;22;20094;-74
2024/04/02 12:47:15;;;;;;;8.93;1.80;;;16.70;95.80;;;;;;6308081;22;19999;-67
2024/04/02 12:51:03;;;;;;;10.52;1.85;;;16.70;96.00;;;;;;6307937;22;20007;-73
2024/04/02 12:53:39;;;;;;;7.10;1.33;;;16.70;95.50;;;;;;6052080;22;21302;-70
2024/04/02 12:56:09;;;;;;;5.88;1.42;;;16.70;93.40;;;;;;6301473;22;20019;-71
2024/04/02 12:58:35;;;;;;;6.32;1.38;;;16.70;93.10;;;;;;6307483;22;20003;-69
2024/04/02 13:01:05;;;;;;;5.40;1.33;;;16.70;92.00;;;;;;6306827;22;19996;-70
2024/04/02 13:03:34;;;;;;;7.35;1.30;;;16.60;92.10;;;;;;6307122;22;20048;-69
2024/04/02 13:06:00;;;;;;;7.63;1.73;;;16.70;92.50;;;;;;6307558;22;20011;-68
2024/04/02 13:08:26;;;;;;;8.13;2.03;;;16.70;93.20;;;;;;6306702;22;20144;-68
2024/04/02 13:10:52;;;;;;;7.72;1.40;;;16.80;93.20;;;;;;6306932;22;20003;-70
2024/04/02 13:13:21;;;;;;;7.65;1.67;;;16.80;93.20;;;;;;6306988;22;20006;-69
2024/04/02 13:15:46;;;;;;;9.23;1.70;;;16.90;92.90;;;;;;6306754;22;20011;-67
2024/04/02 13:18:12;;;;;;;5.68;1.63;;;16.80;92.90;;;;;;6306939;22;20030;-67
2024/04/02 13:20:41;;;;;;;5.32;1.10;;;16.80;93.20;;;;;;6307401;22;20003;-69
2024/04/02 13:23:09;;;;;;;5.38;1.00;;;16.80;91.50;;;;;;6307250;22;20458;-68
2024/04/02 13:25:35;;;;;;;7.72;2.10;;;16.80;91.80;;;;;;6305644;22;20444;-68
2024/04/02 13:28:01;;;;;;;11.70;1.42;;;16.80;93.00;;;;;;6307061;22;19999;-70
2024/04/02 13:30:27;;;;;;;6.38;1.20;;;16.80;93.10;;;;;;6307398;22;19999;-68
2024/04/02 13:32:53;;;;;;;9.77;1.23;;;16.80;93.20;;;;;;6307324;22;20003;-70
2024/04/02 13:35:20;;;;;;;6.10;1.25;;;16.70;92.40;;;;;;6307185;22;20027;-70
2024/04/02 13:37:47;;;;;;;7.45;1.20;;;16.80;93.20;;;;;;6307239;22;20010;-70
2024/04/02 13:40:15;;;;;;;5.40;1.30;;;16.80;92.80;;;;;;6307025;22;20030;-71
2024/04/02 13:42:41;;;;;;;9.90;1.52;;;16.90;91.80;;;;;;6307197;22;19996;-70
2024/04/02 13:45:10;;;;;;;9.75;1.25;;;16.90;91.90;;;;;;6307240;22;20005;-71
2024/04/02 13:47:37;;;;;;;3.67;0.95;;;16.90;91.20;;;;;;6307503;22;20367;-70
2024/04/02 13:50:03;;;;;;;6.97;1.08;;;16.90;91.20;;;;;;6307297;22;20006;-70
2024/04/02 13:52:33;;;;;;;6.35;1.13;;;16.90;90.80;;;;;;6303655;22;20433;-70
2024/04/02 13:54:59;;;;;;;5.70;1.10;;;17.00;90.40;;;;;;6303062;22;20046;-71
2024/04/02 13:57:25;;;;;;;3.90;0.65;;;17.00;90.20;;;;;;6304728;22;20480;-71
2024/04/02 13:59:52;;;;;;;3.78;0.90;;;16.90;89.40;;;;;;6306341;22;20034;-71
2024/04/02 14:02:19;;;;;;;3.88;0.95;;;16.90;89.40;;;;;;6306661;22;19995;-70
2024/04/02 14:04:45;;;;;;;3.08;0.77;;;16.80;87.80;;;;;;6306659;22;20048;-70
2024/04/02 14:07:11;;;;;;;9.75;1.02;;;16.70;88.80;;;;;;6306600;22;19995;-70
2024/04/02 14:09:38;;;;;;;4.90;0.90;;;16.80;88.60;;;;;;6306979;22;20101;-70
2024/04/02 14:12:04;;;;;;;6.80;1.00;;;16.70;87.90;;;;;;6307121;22;20041;-70
2024/04/02 14:14:31;;;;;;;5.95;1.20;;;16.70;88.80;;;;;;6306767;22;20007;-70
2024/04/02 14:16:56;;;;;;;1.88;0.82;;;16.80;90.40;;;;;;6306905;22;20057;-70
2024/04/02 14:19:22;;;;;;;6.53;1.20;;;16.80;90.20;;;;;;6304664;22;20006;-70
2024/04/02 14:21:54;;;;;;;6.75;1.17;;;16.80;90.10;;;;;;6303671;22;20008;-70
2024/04/02 14:24:20;;;;;;;3.50;0.90;;;16.80;90.10;;;;;;6305169;22;20011;-70
2024/04/02 14:26:46;;;;;;;4.05;0.90;;;16.80;90.30;;;;;;6307182;22;20070;-71
2024/04/02 14:29:15;;;;;;;3.55;0.90;;;16.80;89.90;;;;;;6306976;22;19999;-70
2024/04/02 14:31:40;;;;;;;9.25;1.42;;;16.90;90.30;;;;;;6307153;22;20053;-71
2024/04/02 14:34:06;;;;;;;4.03;0.95;;;16.90;90.50;;;;;;6306549;22;20003;-70
2024/04/02 14:36:32;;;;;;;3.70;1.17;;;16.90;90.40;;;;;;6306371;22;20007;-70
2024/04/02 14:38:59;;;;;;;3.83;0.95;;;17.00;90.40;;;;;;6305517;22;20003;-70
2024/04/02 14:41:28;;;;;;;5.78;1.15;;;16.90;89.70;;;;;;6304091;22;20027;-70
2024/04/02 14:43:54;;;;;;;5.90;0.85;;;17.00;89.50;;;;;;6304002;22;20004;-71
2024/04/02 14:46:19;;;;;;;5.53;0.98;;;16.90;89.50;;;;;;6304039;22;20004;-71
2024/04/02 14:48:47;;;;;;;3.05;1.00;;;16.90;87.60;;;;;;6304190;22;20010;-70
2024/04/02 14:51:13;;;;;;;2.38;0.70;;;16.90;89.50;;;;;;6304730;22;19999;-70
2024/04/02 14:53:39;;;;;;;2.53;0.90;;;16.90;90.10;;;;;;6305087;22;20003;-70
2024/04/02 14:56:05;;;;;;;2.63;0.70;;;16.90;88.90;;;;;;6306638;22;20015;-71
2024/04/02 14:58:34;;;;;;;3.60;1.00;;;16.90;89.70;;;;;;6306946;22;20064;-71
2024/04/02 15:01:06;;;;;;;2.92;0.80;;;16.90;90.00;;;;;;6307239;22;20033;-71
2024/04/02 15:03:32;;;;;;;6.25;1.13;;;17.00;90.20;;;;;;6307219;22;19999;-71
2024/04/02 15:05:58;;;;;;;8.15;0.90;;;17.00;90.10;;;;;;6307034;22;20003;-70
2024/04/02 15:08:24;;;;;;;4.30;0.70;;;17.00;89.80;;;;;;6309014;22;20003;-70
2024/04/02 15:10:54;;;;;;;5.18;0.93;;;17.00;90.00;;;;;;6308805;22;20022;-71
2024/04/02 15:13:19;;;;;;;2.55;0.75;;;17.00;88.20;;;;;;6309116;22;20007;-71
2024/04/02 15:15:45;;;;;;;2.53;0.80;;;16.90;88.90;;;;;;6308651;22;20498;-70
2024/04/02 15:18:11;;;;;;;2.97;1.10;;;16.90;89.70;;;;;;6308897;22;20072;-71
2024/04/02 15:20:37;;;;;;;4.28;1.02;;;16.90;89.80;;;;;;6308931;22;19999;-71
2024/04/02 15:23:04;;;;;;;1.90;0.60;;;16.90;90.20;;;;;;6308587;22;19995;-70
2024/04/02 15:25:30;;;;;;;3.28;0.70;;;16.90;89.60;;;;;;6308704;22;20105;-71
2024/04/02 15:27:56;;;;;;;5.47;0.68;;;16.90;89.10;;;;;;6308747;22;20035;-70
2024/04/02 15:30:22;;;;;;;2.05;0.57;;;16.90;89.50;;;;;;6309007;22;20003;-71
2024/04/02 15:32:51;;;;;;;5.43;1.33;;;16.80;89.80;;;;;;6308688;22;19995;-70
2024/04/02 15:35:17;;;;;;;5.95;1.08;;;16.80;90.00;;;;;;6308624;22;20049;-70
2024/04/02 15:37:43;;;;;;;4.10;0.77;;;16.80;90.40;;;;;;6308879;22;20007;-71
2024/04/02 15:40:14;;;;;;;1.75;0.68;;;16.70;90.40;;;;;;6308696;22;20010;-71
2024/04/02 15:42:40;;;;;;;1.87;0.70;;;16.80;90.60;;;;;;6308798;22;20002;-70
2024/04/02 15:45:07;;;;;;;1.77;0.68;;;16.70;90.40;;;;;;6281139;22;20011;-70
2024/04/02 15:47:33;;;;;;;5.65;1.48;;;16.70;90.70;;;;;;6308529;22;20003;-70
2024/04/02 15:49:58;;;;;;;2.60;0.75;;;16.80;91.10;;;;;;6308631;22;20007;-71
2024/04/02 15:52:24;;;;;;;4.93;0.90;;;16.80;90.40;;;;;;6308706;22;19996;-70
2024/04/02 15:54:51;;;;;;;3.22;0.80;;;16.80;90.30;;;;;;6308502;22;20015;-71
2024/04/02 15:57:17;;;;;;;4.03;0.88;;;16.80;90.20;;;;;;6308786;22;20064;-70
2024/04/02 15:59:43;;;;;;;5.07;1.20;;;16.70;90.50;;;;;;6308687;22;20390;-70
2024/04/02 16:02:09;;;;;;;4.18;1.10;;;16.70;90.60;;;;;;6308014;22;19996;-70
2024/04/02 16:04:36;;;;;;;3.03;0.82;;;16.70;90.90;;;;;;6308330;22;20102;-70
2024/04/02 16:07:03;;;;;;;4.60;0.80;;;16.70;91.10;;;;;;6308204;22;20003;-70
2024/04/02 16:09:30;;;;;;;4.32;2.22;;;16.80;90.80;;;;;;6308134;22;20429;-70
2024/04/02 16:11:56;;;;;;;4.22;1.05;;;16.70;90.70;;;;;;6308316;22;20425;-70
2024/04/02 16:14:22;;;;;;;4.30;0.95;;;16.70;91.00;;;;;;6308123;22;20011;-70
2024/04/02 16:16:47;;;;;;;4.88;1.02;;;16.70;91.10;;;;;;6308399;22;20007;-70
2024/04/02 16:19:13;;;;;;;1.80;0.70;;;16.70;91.30;;;;;;6307969;22;20349;-70
2024/04/02 16:21:39;;;;;;;2.42;0.90;;;16.70;91.30;;;;;;6308301;22;20010;-71